Time,TemperatureF,DewpointF,PressureIn,WindDirection,WindDirectionDegrees,WindSpeedMPH,WindSpeedGustMPH,Humidity,HourlyPrecipIn,Conditions,Clouds,dailyrainin,SoftwareType,DateUTC
2013-07-05 00:15:00,67.1,61.0,29.92,SSE,155,0.0,0.0,80,0.00,,,0.00,weatherlink.com 1.10,2013-07-05 05:15:00,
2013-07-05 00:30:00,66.7,60.0,29.93,SSE,155,0.0,0.0,80,0.00,,,0.00,weatherlink.com 1.10,2013-07-05 05:30:00,
2013-07-05 00:45:00,66.2,60.0,29.92,SSE,155,0.0,1.0,81,0.00,,,0.00,weatherlink.com 1.10,2013-07-05 05:45:00,
2013-07-05 01:00:00,65.6,60.0,29.92,SSE,155,0.0,2.0,82,0.00,,,0.00,weatherlink.com 1.10,2013-07-05 06:00:00,
2013-07-05 01:15:00,65.0,60.0,29.92,SSE,155,0.0,6.0,83,0.00,,,0.00,weatherlink.com 1.10,2013-07-05 06:15:00,
2013-07-05 01:30:00,64.7,59.0,29.92,SSE,155,0.0,3.0,83,0.00,,,0.00,weatherlink.com 1.10,2013-07-05 06:30:00,
2013-07-05 01:45:00,64.7,59.0,29.92,SSE,155,0.0,1.0,83,0.00,,,0.00,weatherlink.com 1.10,2013-07-05 06:45:00,
2013-07-05 02:00:00,64.4,59.0,29.92,SSE,155,0.0,2.0,83,0.00,,,0.00,weatherlink.com 1.10,2013-07-05 07:00:00,
2013-07-05 02:15:00,64.0,59.0,29.92,SSE,155,0.0,0.0,83,0.00,,,0.00,weatherlink.com 1.10,2013-07-05 07:15:00,
2013-07-05 02:30:00,63.6,59.0,29.92,SSE,155,0.0,1.0,84,0.00,,,0.00,weatherlink.com 1.10,2013-07-05 07:30:00,
2013-07-05 02:45:00,63.3,58.0,29.92,SSE,155,0.0,5.0,84,0.00,,,0.00,weatherlink.com 1.10,2013-07-05 07:45:00,
2013-07-05 03:00:00,63.0,59.0,29.92,SSE,155,0.0,1.0,85,0.00,,,0.00,weatherlink.com 1.10,2013-07-05 08:00:00,
2013-07-05 03:15:00,62.7,58.0,29.92,SSE,155,0.0,3.0,85,0.00,,,0.00,weatherlink.com 1.10,2013-07-05 08:15:00,
2013-07-05 03:30:00,62.5,58.0,29.92,SSE,155,0.0,3.0,85,0.00,,,0.00,weatherlink.com 1.10,2013-07-05 08:30:00,
2013-07-05 03:45:00,62.4,58.0,29.92,SSE,155,0.0,1.0,85,0.00,,,0.00,weatherlink.com 1.10,2013-07-05 08:45:00,
2013-07-05 04:00:00,62.3,58.0,29.92,SSE,155,0.0,4.0,86,0.00,,,0.00,weatherlink.com 1.10,2013-07-05 09:00:00,
2013-07-05 04:15:00,62.0,58.0,29.92,SSE,155,0.0,1.0,86,0.00,,,0.00,weatherlink.com 1.10,2013-07-05 09:15:00,
2013-07-05 04:30:00,61.8,58.0,29.93,SSE,155,0.0,3.0,86,0.00,,,0.00,weatherlink.com 1.10,2013-07-05 09:30:00,
2013-07-05 04:45:00,61.6,58.0,29.93,SSE,155,0.0,0.0,87,0.00,,,0.00,weatherlink.com 1.10,2013-07-05 09:45:00,
2013-07-05 05:00:00,61.4,58.0,29.93,SSE,155,0.0,1.0,88,0.00,,,0.00,weatherlink.com 1.10,2013-07-05 10:00:00,
2013-07-05 05:15:00,61.3,57.0,29.93,SSE,155,0.0,7.0,87,0.00,,,0.00,weatherlink.com 1.10,2013-07-05 10:15:00,
2013-07-05 05:30:00,61.2,58.0,29.92,SSE,155,0.0,4.0,88,0.00,,,0.00,weatherlink.com 1.10,2013-07-05 10:30:00,
2013-07-05 05:45:00,61.1,58.0,29.92,SSE,155,0.0,2.0,88,0.00,,,0.00,weatherlink.com 1.10,2013-07-05 10:45:00,
2013-07-05 06:00:00,61.1,58.0,29.93,SSE,155,0.0,5.0,88,0.00,,,0.00,weatherlink.com 1.10,2013-07-05 11:00:00,
2013-07-05 06:15:00,61.2,58.0,29.93,SSE,156,0.0,4.0,88,0.00,,,0.00,weatherlink.com 1.10,2013-07-05 11:15:00,
2013-07-05 06:30:00,61.6,58.0,29.92,SSE,156,0.0,6.0,89,0.00,,,0.00,weatherlink.com 1.10,2013-07-05 11:30:00,
2013-07-05 06:45:00,62.2,59.0,29.92,SSE,157,0.0,1.0,88,0.00,,,0.00,weatherlink.com 1.10,2013-07-05 11:45:00,
2013-07-05 07:00:00,63.1,59.0,29.92,SSE,156,0.0,6.0,87,0.00,,,0.00,weatherlink.com 1.10,2013-07-05 12:00:00,
2013-07-05 07:15:00,64.4,60.0,29.92,SSE,156,0.0,5.0,86,0.00,,,0.00,weatherlink.com 1.10,2013-07-05 12:15:00,
2013-07-05 07:30:00,65.9,61.0,29.93,SSE,157,0.0,6.0,84,0.00,,,0.00,weatherlink.com 1.10,2013-07-05 12:30:00,
2013-07-05 07:45:00,67.8,62.0,29.93,SSE,157,0.0,1.0,81,0.00,,,0.00,weatherlink.com 1.10,2013-07-05 12:45:00,
2013-07-05 08:00:00,69.0,62.0,29.94,SSE,157,0.0,4.0,79,0.00,,,0.00,weatherlink.com 1.10,2013-07-05 13:00:00,
2013-07-05 08:15:00,70.7,63.0,29.94,SSE,162,0.0,8.0,76,0.00,,,0.00,weatherlink.com 1.10,2013-07-05 13:15:00,
2013-07-05 08:30:00,71.9,63.0,29.94,SSE,167,0.0,8.0,74,0.00,,,0.00,weatherlink.com 1.10,2013-07-05 13:30:00,
2013-07-05 08:45:00,73.0,65.0,29.94,South,169,3.0,9.0,75,0.00,,,0.00,weatherlink.com 1.10,2013-07-05 13:45:00,
2013-07-05 09:16:00,75.9,65.0,29.94,SSE,160,0.0,6.0,70,0.00,,,0.00,weatherlink.com 1.10,2013-07-05 14:16:00,
2013-07-05 09:31:00,77.0,65.0,29.93,SSE,166,8.0,9.0,66,0.00,,,0.00,weatherlink.com 1.10,2013-07-05 14:31:00,
2013-07-05 09:46:00,77.7,65.0,29.93,SSE,160,0.0,8.0,66,0.00,,,0.00,weatherlink.com 1.10,2013-07-05 14:46:00,
2013-07-05 10:01:00,78.2,65.0,29.92,SE,146,0.0,8.0,65,0.00,,,0.00,weatherlink.com 1.10,2013-07-05 15:01:00,
2013-07-05 10:31:00,80.5,67.0,29.93,SSE,162,6.0,7.0,63,0.00,,,0.00,weatherlink.com 1.10,2013-07-05 15:31:00,
2013-07-05 10:46:00,81.8,66.0,29.92,South,186,3.0,13.0,59,0.00,,,0.00,weatherlink.com 1.10,2013-07-05 15:46:00,
2013-07-05 11:01:00,82.5,67.0,29.93,SE,143,11.0,11.0,60,0.00,,,0.00,weatherlink.com 1.10,2013-07-05 16:01:00,
2013-07-05 11:16:00,81.6,65.0,29.92,South,169,5.0,14.0,57,0.00,,,0.00,weatherlink.com 1.10,2013-07-05 16:16:00,
2013-07-05 11:31:00,82.6,67.0,29.92,SSE,166,2.0,10.0,60,0.00,,,0.00,weatherlink.com 1.10,2013-07-05 16:31:00,
2013-07-05 11:46:00,83.4,67.0,29.91,SE,138,3.0,11.0,57,0.00,,,0.00,weatherlink.com 1.10,2013-07-05 16:46:00,
2013-07-05 12:01:00,83.0,67.0,29.91,SE,146,2.0,16.0,58,0.00,,,0.00,weatherlink.com 1.10,2013-07-05 17:01:00,
2013-07-05 12:16:00,84.4,68.0,29.91,South,174,0.0,9.0,59,0.00,,,0.00,weatherlink.com 1.10,2013-07-05 17:16:00,
2013-07-05 12:31:00,84.1,67.0,29.91,SSE,161,0.0,11.0,57,0.00,,,0.00,weatherlink.com 1.10,2013-07-05 17:31:00,
2013-07-05 12:46:00,84.6,68.0,29.90,SSE,154,3.0,10.0,57,0.00,,,0.00,weatherlink.com 1.10,2013-07-05 17:46:00,
2013-07-05 13:01:00,84.9,66.0,29.89,SSE,154,0.0,14.0,54,0.00,,,0.00,weatherlink.com 1.10,2013-07-05 18:01:00,
2013-07-05 13:16:00,85.9,68.0,29.89,SE,138,7.0,14.0,55,0.00,,,0.00,weatherlink.com 1.10,2013-07-05 18:16:00,
2013-07-05 13:31:00,85.8,68.0,29.89,SSE,158,5.0,12.0,55,0.00,,,0.00,weatherlink.com 1.10,2013-07-05 18:31:00,
2013-07-05 13:46:00,86.1,67.0,29.89,SSW,201,1.0,12.0,54,0.00,,,0.00,weatherlink.com 1.10,2013-07-05 18:46:00,
2013-07-05 14:01:00,86.8,68.0,29.89,SSE,150,12.0,12.0,54,0.00,,,0.00,weatherlink.com 1.10,2013-07-05 19:01:00,
2013-07-05 14:16:00,86.8,66.0,29.88,South,186,2.0,9.0,50,0.00,,,0.00,weatherlink.com 1.10,2013-07-05 19:16:00,
2013-07-05 14:31:00,86.5,66.0,29.88,SE,133,1.0,17.0,50,0.00,,,0.00,weatherlink.com 1.10,2013-07-05 19:31:00,
2013-07-05 14:46:00,86.3,66.0,29.88,SSE,148,4.0,16.0,50,0.00,,,0.00,weatherlink.com 1.10,2013-07-05 19:46:00,
2013-07-05 15:01:00,86.3,66.0,29.88,SSE,154,0.0,11.0,51,0.00,,,0.00,weatherlink.com 1.10,2013-07-05 20:01:00,
2013-07-05 15:16:00,86.9,65.0,29.88,SSE,167,0.0,12.0,49,0.00,,,0.00,weatherlink.com 1.10,2013-07-05 20:16:00,
2013-07-05 15:31:00,86.0,66.0,29.88,SE,141,1.0,15.0,51,0.00,,,0.00,weatherlink.com 1.10,2013-07-05 20:31:00,
2013-07-05 15:46:00,85.9,65.0,29.88,South,186,0.0,11.0,49,0.00,,,0.00,weatherlink.com 1.10,2013-07-05 20:46:00,
2013-07-05 16:01:00,86.4,66.0,29.87,SE,128,7.0,14.0,50,0.00,,,0.00,weatherlink.com 1.10,2013-07-05 21:01:00,
2013-07-05 16:16:00,85.2,65.0,29.88,SE,146,2.0,13.0,51,0.00,,,0.00,weatherlink.com 1.10,2013-07-05 21:16:00,
2013-07-05 16:31:00,86.1,65.0,29.87,SE,142,1.0,14.0,50,0.00,,,0.00,weatherlink.com 1.10,2013-07-05 21:31:00,
2013-07-05 16:46:00,85.7,65.0,29.87,SSE,149,5.0,16.0,50,0.00,,,0.00,weatherlink.com 1.10,2013-07-05 21:46:00,
2013-07-05 17:02:00,85.7,65.0,29.87,South,186,0.0,11.0,50,0.00,,,0.00,weatherlink.com 1.10,2013-07-05 22:02:00,
2013-07-05 17:16:00,85.4,65.0,29.86,ESE,120,1.0,13.0,51,0.00,,,0.00,weatherlink.com 1.10,2013-07-05 22:16:00,
2013-07-05 17:31:00,85.3,65.0,29.86,SSE,153,0.0,16.0,51,0.00,,,0.00,weatherlink.com 1.10,2013-07-05 22:31:00,
2013-07-05 17:46:00,84.8,65.0,29.86,SSE,158,0.0,12.0,52,0.00,,,0.00,weatherlink.com 1.10,2013-07-05 22:46:00,
2013-07-05 18:01:00,84.7,66.0,29.85,South,173,0.0,12.0,53,0.00,,,0.00,weatherlink.com 1.10,2013-07-05 23:01:00,
2013-07-05 18:16:00,84.7,66.0,29.85,SSE,155,0.0,3.0,53,0.00,,,0.00,weatherlink.com 1.10,2013-07-05 23:16:00,
2013-07-05 18:31:00,84.7,66.0,29.85,SE,142,1.0,9.0,54,0.00,,,0.00,weatherlink.com 1.10,2013-07-05 23:31:00,
2013-07-05 18:46:00,84.5,65.0,29.85,SSE,149,0.0,8.0,52,0.00,,,0.00,weatherlink.com 1.10,2013-07-05 23:46:00,
2013-07-05 19:02:00,83.6,65.0,29.85,SE,146,0.0,1.0,54,0.00,,,0.00,weatherlink.com 1.10,2013-07-06 00:02:00,
2013-07-05 19:17:00,82.2,64.0,29.85,SE,146,0.0,1.0,55,0.00,,,0.00,weatherlink.com 1.10,2013-07-06 00:17:00,
2013-07-05 19:32:00,81.4,65.0,29.85,SE,144,0.0,0.0,57,0.00,,,0.00,weatherlink.com 1.10,2013-07-06 00:32:00,
2013-07-05 19:47:00,81.4,65.0,29.86,SE,142,0.0,1.0,58,0.00,,,0.00,weatherlink.com 1.10,2013-07-06 00:47:00,
2013-07-05 20:02:00,81.2,64.0,29.86,SE,142,0.0,1.0,56,0.00,,,0.00,weatherlink.com 1.10,2013-07-06 01:02:00,
2013-07-05 20:17:00,80.5,64.0,29.85,SE,137,0.0,0.0,58,0.00,,,0.00,weatherlink.com 1.10,2013-07-06 01:17:00,
2013-07-05 20:32:00,79.2,64.0,29.85,SE,138,0.0,0.0,60,0.00,,,0.00,weatherlink.com 1.10,2013-07-06 01:32:00,
2013-07-05 20:47:00,78.0,64.0,29.85,SE,138,0.0,0.0,62,0.00,,,0.00,weatherlink.com 1.10,2013-07-06 01:47:00,
2013-07-05 21:02:00,76.8,64.0,29.86,SE,138,0.0,0.0,65,0.00,,,0.00,weatherlink.com 1.10,2013-07-06 02:02:00,
2013-07-05 21:17:00,75.6,63.0,29.86,SE,138,0.0,0.0,66,0.00,,,0.00,weatherlink.com 1.10,2013-07-06 02:17:00,
2013-07-05 21:32:00,74.4,64.0,29.86,SE,138,0.0,0.0,69,0.00,,,0.00,weatherlink.com 1.10,2013-07-06 02:32:00,
2013-07-05 21:47:00,73.6,63.0,29.87,SE,138,0.0,0.0,70,0.00,,,0.00,weatherlink.com 1.10,2013-07-06 02:47:00,
2013-07-05 22:02:00,72.8,63.0,29.87,SE,138,0.0,0.0,71,0.00,,,0.00,weatherlink.com 1.10,2013-07-06 03:02:00,
2013-07-05 22:17:00,72.1,63.0,29.88,SE,137,0.0,0.0,73,0.00,,,0.00,weatherlink.com 1.10,2013-07-06 03:17:00,
2013-07-05 22:32:00,71.5,63.0,29.88,SE,137,0.0,0.0,74,0.00,,,0.00,weatherlink.com 1.10,2013-07-06 03:32:00,
2013-07-05 22:47:00,71.1,63.0,29.88,SE,136,0.0,0.0,75,0.00,,,0.00,weatherlink.com 1.10,2013-07-06 03:47:00,
2013-07-05 23:02:00,70.8,63.0,29.88,SE,134,0.0,0.0,76,0.00,,,0.00,weatherlink.com 1.10,2013-07-06 04:02:00,
2013-07-05 23:17:00,70.7,63.0,29.88,SE,134,0.0,0.0,76,0.00,,,0.00,weatherlink.com 1.10,2013-07-06 04:17:00,
2013-07-05 23:32:00,70.6,63.0,29.88,SE,136,0.0,0.0,76,0.00,,,0.00,weatherlink.com 1.10,2013-07-06 04:32:00,
2013-07-05 23:47:00,70.6,63.0,29.89,SE,135,0.0,0.0,77,0.00,,,0.00,weatherlink.com 1.10,2013-07-06 04:47:00,